Terminal Aerodrome Forecast
Issued by NWS Duluth, MN

Home | Current Version | Previous Version | Text Only | Print | Product List | Glossary On
Versions: 1 2 3 4 5 6 7 8 9 10 11 12 13 14 15 16 17 18 19 20 21 22 23 24 25
131
FTUS43 KDLH 160530
TAFINL
TAF
KINL 160530Z 1606/1706 27007KT P6SM SKC
     FM161900 23009G15KT P6SM FEW250
     FM170100 20007KT P6SM BKN070=

USA.gov is the U.S. government's official web portal to all federal, state and local government web resources and services.